Time;durP1;ratioP1;P1;durP2;ratioP2;P2;SDS_P1;SDS_P2;PMS_P1;PMS_P2;Temp;Humidity;BMP_temperature;BMP_pressure;BME280_temperature;BME280_humidity;BME280_pressure;Samples;Min_cycle;Max_cycle;Signal;HPM_P1;HPM_P2
2022/06/17 00:01:30;;;;;;;6.50;2.60;;;;;;;10.19;73.11;99921.33;1685860;84;21889;-61
2022/06/17 00:03:57;;;;;;;4.50;2.70;;;;;;;10.17;73.34;99917.96;1669442;83;21041;-61
2022/06/17 00:06:26;;;;;;;7.97;3.07;;;;;;;10.16;73.37;99918.85;1693243;83;20950;-61
2022/06/17 00:08:53;;;;;;;6.55;3.62;;;;;;;10.16;73.42;99918.85;1692838;83;21456;-61
2022/06/17 00:11:28;;;;;;;6.42;2.40;;;;;;;10.16;73.53;99922.77;1694044;83;20970;-61
2022/06/17 00:13:54;;;;;;;5.00;2.67;;;;;;;10.14;73.65;99918.06;1691017;83;21979;-61
2022/06/17 00:16:24;;;;;;;5.60;2.92;;;;;;;10.13;73.75;99921.59;1697861;83;20914;-61
2022/06/17 00:18:51;;;;;;;8.50;3.15;;;;;;;10.12;73.80;99927.73;1691399;83;21464;-61
2022/06/17 00:21:25;;;;;;;10.40;2.85;;;;;;;10.12;73.95;99931.19;1690525;83;20891;-61
2022/06/17 00:23:53;;;;;;;5.90;2.92;;;;;;;10.14;74.02;99928.50;1688665;83;20930;-62
2022/06/17 00:26:20;;;;;;;7.47;3.22;;;;;;;10.13;74.15;99932.03;1691315;83;21070;-61
2022/06/17 00:28:48;;;;;;;9.08;2.80;;;;;;;10.12;74.22;99932.95;1694067;83;20903;-61
2022/06/17 00:31:15;;;;;;;9.18;3.33;;;;;;;10.11;74.26;99932.55;1693294;83;21396;-62
2022/06/17 00:33:43;;;;;;;6.37;2.67;;;;;;;10.11;74.42;99940.37;1690680;83;20969;-61
2022/06/17 00:36:16;;;;;;;4.10;2.62;;;;;;;10.09;74.47;99932.16;1693011;83;20954;-62
2022/06/17 00:38:45;;;;;;;3.17;2.40;;;;;;;10.09;74.55;99937.38;1695087;82;21459;-61
2022/06/17 00:41:37;;;;;;;3.50;2.52;;;;;;;10.08;74.71;99935.70;1665616;85;20855;-61
2022/06/17 00:44:30;;;;;;;5.47;3.30;;;;;;;10.09;74.74;99938.69;1685950;84;20954;-61
2022/06/17 00:47:20;;;;;;;3.75;2.72;;;;;;;10.07;74.92;99938.36;1695583;83;20936;-61
2022/06/17 00:50:00;;;;;;;7.50;3.05;;;;;;;10.06;75.00;99937.97;1688978;84;20892;-61
2022/06/17 00:52:37;;;;;;;7.25;3.65;;;;;;;10.05;75.12;99939.73;1664476;85;21138;-61
2022/06/17 00:55:32;;;;;;;3.95;2.50;;;;;;;10.05;75.23;99945.39;1686636;84;20936;-61
2022/06/17 00:58:03;;;;;;;6.83;3.15;;;;;;;10.03;75.30;99940.25;1699162;84;20995;-61
2022/06/17 01:00:32;;;;;;;12.10;4.40;;;;;;;10.01;75.40;99939.45;1677277;85;20918;-61
2022/06/17 01:03:04;;;;;;;5.28;2.42;;;;;;;9.99;75.51;99943.88;1691235;84;21547;-61
2022/06/17 01:05:44;;;;;;;4.60;2.83;;;;;;;9.97;75.57;99937.91;1692130;82;21182;-62
2022/06/17 01:11:15;;;;;;;5.80;2.45;;;;;;;9.93;75.69;99936.31;1699415;83;20971;-61
2022/06/17 01:13:45;;;;;;;4.28;2.70;;;;;;;9.91;75.87;99937.29;1694744;83;20997;-61
2022/06/17 01:16:11;;;;;;;5.78;2.45;;;;;;;9.89;75.87;99942.59;1698507;83;21524;-61
2022/06/17 01:18:42;;;;;;;6.08;2.72;;;;;;;9.88;76.06;99947.39;1698235;83;21051;-61
2022/06/17 01:21:23;;;;;;;6.67;3.62;;;;;;;9.94;75.81;99944.98;1669469;85;20981;-61
2022/06/17 01:23:50;;;;;;;3.12;2.20;;;;;;;9.88;75.97;99947.39;1692527;84;20923;-61
2022/06/17 01:26:18;;;;;;;6.95;2.87;;;;;;;9.87;75.96;99944.39;1688366;83;20993;-62
2022/06/17 01:28:44;;;;;;;4.62;2.50;;;;;;;9.83;76.08;99940.20;1666996;85;21060;-61
2022/06/17 01:31:11;;;;;;;4.67;2.30;;;;;;;9.82;76.20;99941.13;1686833;84;22610;-61
2022/06/17 01:33:41;;;;;;;5.15;3.08;;;;;;;9.80;76.28;99946.84;1690051;82;20955;-61
2022/06/17 01:36:18;;;;;;;6.25;3.33;;;;;;;9.78;76.37;99946.09;1662965;85;20910;-61
2022/06/17 01:38:49;;;;;;;6.83;3.83;;;;;;;9.75;76.36;99946.21;1684904;84;21004;-62
2022/06/17 01:41:18;;;;;;;5.17;3.00;;;;;;;9.69;76.39;99943.39;1688615;84;20958;-61
2022/06/17 01:43:55;;;;;;;6.97;3.35;;;;;;;9.63;76.41;99949.70;1670811;85;21865;-61
2022/06/17 01:46:27;;;;;;;5.12;3.15;;;;;;;9.58;76.53;99956.84;1682551;84;20863;-61
2022/06/17 01:49:02;;;;;;;3.60;2.75;;;;;;;9.53;76.63;99956.17;1698753;83;20920;-61
2022/06/17 01:51:32;;;;;;;8.50;4.97;;;;;;;9.52;76.76;99949.28;1667536;85;20993;-61
2022/06/17 01:54:03;;;;;;;5.20;2.90;;;;;;;9.48;76.84;99948.98;1668040;85;20981;-61
2022/06/17 01:56:34;;;;;;;5.15;3.70;;;;;;;9.46;76.93;99954.70;1692520;84;21118;-61
2022/06/17 01:59:18;;;;;;;4.28;2.70;;;;;;;9.43;76.96;99952.22;1671017;85;21448;-61
2022/06/17 02:01:48;;;;;;;7.92;4.20;;;;;;;9.41;77.10;99956.67;1659817;84;20923;-61
2022/06/17 02:04:21;;;;;;;6.92;3.92;;;;;;;9.40;77.27;99962.77;1691282;84;21028;-61
2022/06/17 02:07:15;;;;;;;7.05;2.80;;;;;;;9.41;77.43;99949.69;1686067;83;21253;-61
2022/06/17 02:09:44;;;;;;;7.85;4.35;;;;;;;9.46;77.57;99957.77;1697030;83;21232;-61
2022/06/17 02:12:14;;;;;;;4.33;2.80;;;;;;;9.50;77.60;99959.36;1697110;82;20929;-61
2022/06/17 02:14:41;;;;;;;5.95;3.25;;;;;;;9.49;77.64;99962.41;1721820;82;20925;-61
2022/06/17 02:17:08;;;;;;;6.17;3.77;;;;;;;9.52;77.74;99955.80;1725556;82;20925;-61
2022/06/17 02:19:38;;;;;;;7.97;4.25;;;;;;;9.55;77.83;99951.77;1727710;82;20981;-61
2022/06/17 02:22:16;;;;;;;7.78;3.62;;;;;;;9.59;78.01;99963.75;1722694;82;21101;-61
2022/06/17 02:24:44;;;;;;;8.25;3.90;;;;;;;9.64;78.07;99954.45;1726540;82;20945;-62
2022/06/17 02:27:12;;;;;;;10.30;3.85;;;;;;;9.69;78.11;99955.55;1726558;82;20953;-61
2022/06/17 02:29:41;;;;;;;8.45;3.85;;;;;;;9.72;78.28;99952.82;1726644;82;20949;-62
2022/06/17 02:32:10;;;;;;;8.10;3.50;;;;;;;9.77;78.34;99949.58;1720704;82;20913;-61
2022/06/17 02:34:48;;;;;;;6.92;3.22;;;;;;;9.82;78.28;99959.38;1723793;82;21516;-61
2022/06/17 02:37:17;;;;;;;9.53;4.03;;;;;;;9.85;78.28;99948.82;1706542;83;20993;-61
2022/06/17 02:39:48;;;;;;;6.80;3.22;;;;;;;9.90;78.39;99946.03;1709422;82;21331;-61
2022/06/17 02:42:23;;;;;;;5.22;3.65;;;;;;;9.99;78.58;99942.58;1705185;83;21517;-62
2022/06/17 02:44:54;;;;;;;5.05;3.10;;;;;;;10.51;79.28;99945.63;1701774;83;20904;-62
2022/06/17 02:47:23;;;;;;;5.05;3.05;;;;;;;11.34;79.37;99948.45;1699374;83;21097;-61
2022/06/17 02:49:51;;;;;;;6.83;3.47;;;;;;;12.14;79.17;99941.14;1702536;83;20946;-61
2022/06/17 02:52:31;;;;;;;6.15;3.27;;;;;;;12.90;78.65;99937.63;1707228;83;20946;-61
2022/06/17 02:55:03;;;;;;;4.75;2.72;;;;;;;13.43;78.13;99897.17;1699715;83;22152;-62
2022/06/17 02:57:31;;;;;;;5.25;2.30;;;;;;;14.38;78.05;99926.27;1708502;83;20927;-61
2022/06/17 03:00:12;;;;;;;5.30;2.35;;;;;;;15.17;77.96;99928.44;1715028;82;21037;-62
2022/06/17 03:02:44;;;;;;;5.58;2.10;;;;;;;15.95;77.49;99927.84;1713537;81;20953;-62
2022/06/17 03:05:22;;;;;;;4.58;2.42;;;;;;;16.67;76.67;99926.44;1736696;81;21433;-62
2022/06/17 03:07:52;;;;;;;5.40;2.60;;;;;;;17.36;76.52;99924.20;1731154;81;21533;-62
2022/06/17 03:10:29;;;;;;;5.65;2.42;;;;;;;18.10;76.03;99918.83;1704705;81;20936;-62
2022/06/17 03:13:04;;;;;;;7.83;2.67;;;;;;;18.59;75.86;99916.87;1698080;84;21128;-62
2022/06/17 03:15:31;;;;;;;23.05;3.80;;;;;;;19.15;74.82;99918.20;1675288;85;20928;-62
2022/06/17 03:17:58;;;;;;;;;;;;;;;19.65;74.54;99914.59;1698283;82;20881;-62
2022/06/17 03:20:29;;;;;;;10.35;3.30;;;;;;;20.54;74.60;99915.16;1679086;83;20673;-62
2022/06/17 03:23:12;;;;;;;8.60;3.00;;;;;;;20.54;74.60;99915.16;1678384;84;20905;-62
2022/06/17 03:25:44;;;;;;;5.83;2.55;;;;;;;21.10;73.27;99919.99;1732283;82;21079;-62
2022/06/17 03:28:15;;;;;;;6.58;2.70;;;;;;;21.55;73.39;99914.24;1730248;82;20911;-62
2022/06/17 03:30:46;;;;;;;4.75;2.70;;;;;;;22.00;72.88;99919.00;1704156;82;20938;-62
2022/06/17 03:33:36;;;;;;;5.50;2.47;;;;;;;22.43;71.66;99919.03;1734786;82;20981;-62
2022/06/17 03:36:08;;;;;;;5.60;2.47;;;;;;;22.94;71.91;99916.42;1733040;82;21508;-62
2022/06/17 03:39:01;;;;;;;10.50;3.25;;;;;;;23.48;71.15;99926.39;1731391;81;21095;-62
2022/06/17 03:42:02;;;;;;;3.55;2.10;;;;;;;23.95;70.74;99920.88;1724343;82;22193;-63
2022/06/17 03:44:34;;;;;;;5.75;2.70;;;;;;;24.41;69.31;99921.53;1658335;85;20962;-63
2022/06/17 03:47:35;;;;;;;6.62;2.75;;;;;;;24.68;69.20;99922.73;1653276;85;20902;-63
2022/06/17 03:50:08;;;;;;;7.62;2.50;;;;;;;24.65;68.16;99921.72;1623271;87;20975;-63
2022/06/17 03:52:51;;;;;;;4.55;2.17;;;;;;;24.91;68.35;99920.84;1624902;87;21039;-63
2022/06/17 03:55:20;;;;;;;5.25;2.08;;;;;;;25.11;67.07;99924.09;1624295;87;21620;-63
2022/06/17 03:57:51;;;;;;;7.53;2.27;;;;;;;25.06;66.55;99925.91;1603426;88;21481;-62
2022/06/17 04:00:29;;;;;;;4.53;2.40;;;;;;;25.16;65.89;99925.31;1615240;87;21016;-63
2022/06/17 04:02:59;;;;;;;4.62;2.27;;;;;;;25.33;65.51;99931.55;1601095;88;21564;-61
2022/06/17 04:05:29;;;;;;;5.83;2.10;;;;;;;25.45;64.63;99924.06;1606875;88;21171;-61
2022/06/17 04:07:56;;;;;;;4.67;2.27;;;;;;;25.44;63.67;99925.90;1625951;87;20980;-61
2022/06/17 04:10:27;;;;;;;5.25;2.25;;;;;;;25.75;64.08;99924.45;1625915;86;20971;-61
2022/06/17 04:12:53;;;;;;;5.58;2.05;;;;;;;26.10;63.69;99924.64;1655811;86;21551;-60
2022/06/17 04:15:59;;;;;;;3.60;1.95;;;;;;;26.19;63.39;99925.50;1650165;86;20968;-61
2022/06/17 04:18:26;;;;;;;4.50;2.27;;;;;;;26.65;62.67;99930.63;1689053;80;21144;-61
2022/06/17 04:20:56;;;;;;;6.30;2.00;;;;;;;27.03;62.61;99928.64;1722934;81;20942;-61
2022/06/17 04:23:27;;;;;;;12.90;2.90;;;;;;;27.73;61.94;99932.66;1699311;83;20958;-61
2022/06/17 04:26:08;;;;;;;11.08;2.35;;;;;;;28.28;60.21;99931.55;1696112;82;21416;-61
2022/06/17 04:29:06;;;;;;;11.73;2.55;;;;;;;28.33;60.16;99929.67;1715147;82;21715;-61
2022/06/17 04:31:33;;;;;;;8.85;2.83;;;;;;;28.38;59.83;99934.50;1729222;82;21879;-61
2022/06/17 04:34:18;;;;;;;34.92;4.62;;;;;;;28.57;58.99;99935.34;1701853;83;20977;-61
2022/06/17 04:36:49;;;;;;;21.95;3.40;;;;;;;28.83;58.94;99946.14;1714691;82;21508;-61
2022/06/17 04:39:38;;;;;;;10.82;2.70;;;;;;;29.08;57.69;99944.86;1697647;83;20987;-61
2022/06/17 04:42:10;;;;;;;6.87;2.50;;;;;;;28.96;56.39;99937.75;1722890;82;20890;-61
2022/06/17 04:44:39;;;;;;;18.20;3.40;;;;;;;29.09;55.84;99936.28;1718723;82;21039;-61
2022/06/17 04:47:15;;;;;;;18.57;4.17;;;;;;;29.26;55.50;99944.97;1717014;82;20926;-61
2022/06/17 04:49:59;;;;;;;5.85;2.20;;;;;;;29.20;55.17;99942.00;1721547;82;21503;-61
2022/06/17 04:52:34;;;;;;;6.00;2.30;;;;;;;29.28;55.09;99944.27;1720884;82;20919;-62
2022/06/17 04:55:05;;;;;;;5.67;2.42;;;;;;;29.78;54.49;99939.89;1717582;82;20953;-61
2022/06/17 04:57:32;;;;;;;6.03;2.42;;;;;;;29.65;52.48;99934.67;1725844;82;21862;-62
2022/06/17 05:00:00;;;;;;;64.87;9.10;;;;;;;29.78;53.48;99942.06;1696308;83;20997;-62
2022/06/17 05:02:33;;;;;;;6.12;2.33;;;;;;;30.59;52.70;99935.50;1698861;83;20910;-61
2022/06/17 05:05:05;;;;;;;5.90;2.20;;;;;;;30.46;51.10;99937.58;1701774;83;20935;-61
2022/06/17 05:07:39;;;;;;;3.65;1.65;;;;;;;30.11;50.36;99939.67;1697956;83;20950;-62
2022/06/17 05:10:12;;;;;;;6.00;2.00;;;;;;;29.82;49.79;99943.33;1698617;82;21160;-62
2022/06/17 05:12:47;;;;;;;5.03;2.20;;;;;;;29.58;49.98;99941.83;1699619;83;20927;-61
2022/06/17 05:15:20;;;;;;;4.60;2.00;;;;;;;29.39;48.96;99934.38;1677436;84;21105;-62
2022/06/17 05:17:48;;;;;;;6.05;2.42;;;;;;;29.83;50.21;99933.42;1702985;84;20948;-61
2022/06/17 05:20:21;;;;;;;5.78;2.35;;;;;;;30.62;49.88;99933.76;1693542;84;21491;-62
2022/06/17 05:22:56;;;;;;;5.55;1.87;;;;;;;30.92;49.15;99936.55;1695356;84;21414;-61
2022/06/17 05:25:41;;;;;;;5.53;1.67;;;;;;;30.91;47.52;99944.83;1718479;82;20931;-62
2022/06/17 05:28:15;;;;;;;4.12;1.92;;;;;;;30.27;46.74;99944.48;1690982;84;21076;-61
2022/06/17 05:30:46;;;;;;;7.10;1.77;;;;;;;29.69;46.61;99950.43;1684729;84;21006;-61
2022/06/17 05:33:15;;;;;;;5.25;2.00;;;;;;;29.42;46.10;99946.09;1709675;82;20965;-62
2022/06/17 05:35:42;;;;;;;5.25;2.22;;;;;;;29.03;45.82;99953.98;1712565;82;21036;-61
2022/06/17 05:38:09;;;;;;;7.67;1.87;;;;;;;28.89;45.87;99952.12;1711623;82;21481;-62
2022/06/17 05:40:38;;;;;;;21.77;3.22;;;;;;;28.96;45.98;99958.40;1714893;82;20931;-62
2022/06/17 05:43:05;;;;;;;5.35;1.95;;;;;;;29.14;45.64;99953.52;1713140;82;21491;-61
2022/06/17 05:45:33;;;;;;;4.83;2.25;;;;;;;29.06;45.25;99956.30;1713600;82;20987;-61
2022/06/17 05:48:00;;;;;;;4.47;2.02;;;;;;;28.48;44.48;99959.26;1712927;82;21298;-62
2022/06/17 05:50:29;;;;;;;4.50;1.90;;;;;;;28.55;45.22;99953.49;1711738;82;20951;-62
2022/06/17 05:53:03;;;;;;;7.08;2.10;;;;;;;28.48;44.84;99956.57;1749314;81;21476;-61
2022/06/17 05:55:33;;;;;;;3.90;1.92;;;;;;;28.26;44.36;99957.77;1752576;81;21886;-62
2022/06/17 05:58:00;;;;;;;8.78;2.25;;;;;;;28.29;44.89;99958.75;1750727;81;20898;-61
2022/06/17 06:00:29;;;;;;;5.45;2.37;;;;;;;28.61;44.87;99955.44;1757778;80;21038;-62
2022/06/17 06:03:03;;;;;;;4.80;1.82;;;;;;;29.05;45.27;99962.71;1748683;81;20850;-62
2022/06/17 06:05:33;;;;;;;3.15;1.60;;;;;;;29.47;44.66;99955.78;1749301;81;20925;-62
2022/06/17 06:08:00;;;;;;;6.28;1.67;;;;;;;29.74;44.72;99956.08;1749037;81;20977;-61
2022/06/17 06:10:27;;;;;;;15.28;3.08;;;;;;;30.11;44.69;99955.83;1746570;80;20920;-62
2022/06/17 06:12:54;;;;;;;40.30;5.00;;;;;;;30.53;44.70;99956.81;1740974;81;21072;-62
2022/06/17 06:15:26;;;;;;;9.13;2.25;;;;;;;30.83;44.25;99956.59;1740235;81;21513;-61
2022/06/17 06:17:53;;;;;;;5.22;2.10;;;;;;;31.02;44.29;99957.74;1738844;81;20993;-62
2022/06/17 06:20:20;;;;;;;5.85;1.80;;;;;;;31.26;44.09;99951.02;1737730;81;20908;-61
2022/06/17 06:22:47;;;;;;;4.37;1.98;;;;;;;31.28;44.00;99948.09;1737194;81;20919;-63
2022/06/17 06:25:16;;;;;;;3.98;1.67;;;;;;;31.69;43.96;99953.44;1739853;81;21887;-64
2022/06/17 06:27:43;;;;;;;5.00;2.17;;;;;;;31.68;43.19;99957.19;1735576;81;20894;-64
2022/06/17 06:30:18;;;;;;;10.28;2.10;;;;;;;31.65;42.86;99961.65;1739246;81;21452;-65
2022/06/17 06:32:54;;;;;;;10.32;2.05;;;;;;;31.48;42.89;99958.98;1740310;81;21010;-65
2022/06/17 06:35:26;;;;;;;4.97;1.62;;;;;;;31.26;42.16;99959.10;1739066;79;21024;-65
2022/06/17 06:37:52;;;;;;;3.85;1.40;;;;;;;30.62;41.53;99967.44;1738192;81;21145;-64
2022/06/17 06:40:20;;;;;;;4.85;1.55;;;;;;;30.39;42.34;99967.17;1738687;81;20892;-64
2022/06/17 06:42:49;;;;;;;6.15;2.00;;;;;;;30.51;41.89;99970.16;1737704;81;21111;-64
2022/06/17 06:45:23;;;;;;;4.37;1.80;;;;;;;30.62;42.00;99970.13;1732788;81;20919;-64
2022/06/17 06:47:53;;;;;;;4.00;1.52;;;;;;;30.97;42.16;99966.42;1735138;81;20905;-61
2022/06/17 06:50:23;;;;;;;4.37;1.37;;;;;;;30.86;41.63;99969.67;1740546;81;20960;-61
2022/06/17 06:52:50;;;;;;;27.05;3.17;;;;;;;30.85;41.57;99967.20;1742174;81;21429;-61
2022/06/17 06:55:18;;;;;;;15.40;2.70;;;;;;;30.86;41.25;99968.33;1742628;81;20875;-61
2022/06/17 06:57:49;;;;;;;3.17;1.15;;;;;;;30.71;41.32;99979.20;1737325;81;20994;-61
2022/06/17 07:00:23;;;;;;;10.50;1.95;;;;;;;29.72;38.13;99982.38;1738637;81;20974;-61
2022/06/17 07:02:51;;;;;;;4.50;1.32;;;;;;;28.23;39.95;99974.24;1743678;81;21883;-60
2022/06/17 07:05:18;;;;;;;6.47;1.87;;;;;;;28.10;40.48;99994.97;1739226;81;20916;-60
2022/06/17 07:07:45;;;;;;;3.85;1.72;;;;;;;28.17;40.85;99996.41;1732208;80;20993;-60
2022/06/17 07:10:25;;;;;;;20.10;3.27;;;;;;;28.43;41.10;99992.53;1735689;81;20915;-60
2022/06/17 07:12:54;;;;;;;8.40;1.72;;;;;;;28.85;41.25;99993.80;1728317;82;21484;-60
2022/06/17 07:15:26;;;;;;;5.00;1.40;;;;;;;29.11;41.04;100001.45;1710471;82;21201;-61
2022/06/17 07:18:06;;;;;;;4.42;1.60;;;;;;;29.01;40.62;100005.72;1732109;82;20958;-60
2022/06/17 07:20:37;;;;;;;8.55;2.30;;;;;;;28.40;40.60;100008.98;1725875;82;20923;-60
2022/06/17 07:23:15;;;;;;;5.05;1.80;;;;;;;28.07;40.67;100009.27;1731340;82;20927;-60
2022/06/17 07:25:42;;;;;;;3.30;1.60;;;;;;;27.82;41.00;100017.47;1724578;82;21023;-61
2022/06/17 07:28:14;;;;;;;3.62;1.15;;;;;;;27.88;40.79;100016.75;1722329;82;20966;-61
2022/06/17 07:30:45;;;;;;;8.10;1.45;;;;;;;27.53;40.76;100017.25;1730905;82;20919;-61
2022/06/17 07:33:13;;;;;;;3.98;1.72;;;;;;;26.91;40.81;100018.78;1731460;81;20895;-61
2022/06/17 07:35:41;;;;;;;5.85;1.37;;;;;;;26.31;40.82;100023.18;1731362;82;20978;-61
2022/06/17 07:41:15;;;;;;;5.20;1.32;;;;;;;25.13;42.04;100031.15;1681822;82;21503;-61
2022/06/17 07:43:41;;;;;;;3.90;1.47;;;;;;;24.88;42.09;100028.83;1689320;83;20980;-61
2022/06/17 07:46:08;;;;;;;5.55;1.70;;;;;;;24.28;42.16;100020.19;1703759;83;20934;-61
2022/06/17 07:48:36;;;;;;;5.60;1.82;;;;;;;23.90;42.68;100020.81;1656565;85;21511;-60
2022/06/17 07:51:05;;;;;;;10.05;2.12;;;;;;;23.84;43.05;100033.92;1700154;83;20967;-61
2022/06/17 07:53:34;;;;;;;4.35;1.60;;;;;;;23.82;43.30;100034.06;1693503;83;21058;-61
2022/06/17 07:56:03;;;;;;;5.10;1.90;;;;;;;23.90;43.77;100032.81;1676486;85;20995;-61
2022/06/17 07:58:31;;;;;;;3.08;1.50;;;;;;;24.05;44.12;100038.96;1692201;83;20965;-61
2022/06/17 08:00:58;;;;;;;4.65;1.72;;;;;;;24.03;44.12;100040.93;1695530;83;20940;-61
2022/06/17 08:03:24;;;;;;;5.03;1.60;;;;;;;23.98;44.64;100045.91;1690071;83;20969;-61
2022/06/17 08:05:55;;;;;;;4.45;1.98;;;;;;;23.86;44.76;100047.45;1693914;83;21057;-61
2022/06/17 08:08:26;;;;;;;6.78;1.95;;;;;;;23.46;44.88;100049.10;1676451;85;20930;-61
2022/06/17 08:10:57;;;;;;;3.35;1.45;;;;;;;22.63;46.07;100053.38;1737385;81;20905;-61
2022/06/17 08:13:24;;;;;;;15.85;1.80;;;;;;;22.19;45.84;100050.33;1748484;81;20969;-61
2022/06/17 08:15:56;;;;;;;3.85;1.95;;;;;;;22.33;46.33;100052.56;1746066;81;20961;-60
2022/06/17 08:18:23;;;;;;;7.45;1.98;;;;;;;22.51;46.54;100050.03;1749464;81;21055;-61
2022/06/17 08:20:50;;;;;;;14.40;2.02;;;;;;;22.69;46.63;100048.84;1742108;81;20934;-61
2022/06/17 08:23:17;;;;;;;15.03;2.17;;;;;;;22.60;46.84;100045.67;1750152;81;20890;-61
2022/06/17 08:25:44;;;;;;;4.85;1.90;;;;;;;22.78;47.01;100052.80;1736313;81;20884;-62
2022/06/17 08:28:12;;;;;;;10.78;2.10;;;;;;;22.72;47.19;100048.55;1743063;81;20862;-61
2022/06/17 08:30:44;;;;;;;4.45;1.57;;;;;;;22.97;47.55;100037.81;1739299;81;21040;-61
2022/06/17 08:33:11;;;;;;;17.10;2.37;;;;;;;22.96;47.05;100044.93;1740699;81;20904;-61
2022/06/17 08:35:45;;;;;;;7.80;2.20;;;;;;;22.83;47.29;100049.72;1740983;81;20970;-61
2022/06/17 08:38:22;;;;;;;5.17;1.57;;;;;;;22.76;47.51;100059.24;1741136;81;20918;-61
2022/06/17 08:40:58;;;;;;;;;;;;;;;22.83;47.74;100063.03;1742349;81;20978;-61
2022/06/17 08:43:51;;;;;;;6.35;1.40;;;;;;;22.84;47.51;100063.86;1738381;80;21976;-61
2022/06/17 08:46:26;;;;;;;6.05;1.52;;;;;;;22.59;47.63;100066.63;1739436;81;20952;-61
2022/06/17 08:49:16;;;;;;;12.90;1.80;;;;;;;22.65;47.60;100065.55;1742539;81;21442;-61
2022/06/17 08:52:17;;;;;;;7.05;1.47;;;;;;;22.24;48.58;100064.05;1748537;81;20929;-61
2022/06/17 08:55:13;;;;;;;3.65;1.37;;;;;;;22.10;48.26;100067.43;1739525;81;21503;-61
2022/06/17 08:57:58;;;;;;;3.30;1.27;;;;;;;21.99;48.11;100073.37;1654637;86;25977;-61
2022/06/17 09:00:48;;;;;;;6.08;1.25;;;;;;;21.90;48.04;100080.31;1655764;85;21077;-61
2022/06/17 09:03:48;;;;;;;4.30;1.75;;;;;;;21.95;48.48;100082.08;1659535;85;20964;-62
2022/06/17 09:06:41;;;;;;;3.20;1.40;;;;;;;22.01;48.52;100070.89;1656854;85;20899;-61
2022/06/17 09:09:49;;;;;;;3.75;1.55;;;;;;;22.44;48.61;100065.73;1656795;86;20936;-61
2022/06/17 09:12:50;;;;;;;7.05;1.57;;;;;;;22.70;48.29;100076.62;1673190;84;21086;-61
2022/06/17 09:15:50;;;;;;;7.33;1.37;;;;;;;23.04;48.20;100067.35;1677657;84;20935;-60
2022/06/17 09:18:25;;;;;;;3.35;1.15;;;;;;;23.23;48.48;100066.80;1678461;84;20972;-61
2022/06/17 09:21:00;;;;;;;4.65;1.60;;;;;;;22.93;47.27;100085.13;1677142;84;21451;-62
2022/06/17 09:23:30;;;;;;;2.60;1.30;;;;;;;22.33;47.76;100088.48;1670007;84;20942;-61
2022/06/17 09:25:59;;;;;;;5.97;1.55;;;;;;;22.04;48.49;100086.60;1678751;84;21103;-61
2022/06/17 09:28:37;;;;;;;5.05;1.32;;;;;;;22.34;48.92;100084.83;1678044;84;20976;-62
2022/06/17 09:31:12;;;;;;;12.00;2.17;;;;;;;22.80;48.79;100084.61;1677295;84;20933;-62
2022/06/17 09:33:44;;;;;;;4.80;1.50;;;;;;;22.91;48.96;100084.45;1722836;80;21023;-61
2022/06/17 09:36:22;;;;;;;3.15;1.10;;;;;;;23.32;47.77;100086.39;1753921;80;21575;-61
2022/06/17 09:38:54;;;;;;;4.78;1.77;;;;;;;23.11;47.35;100079.12;1757405;80;21004;-61
2022/06/17 09:41:48;;;;;;;91.85;67.35;;;;;;;22.91;47.64;100087.12;1756694;80;20873;-61
2022/06/17 09:44:20;;;;;;;13.32;2.22;;;;;;;22.64;47.35;100078.53;1752446;80;20952;-61
2022/06/17 09:47:01;;;;;;;6.70;1.75;;;;;;;22.63;48.18;100082.64;1754325;80;20964;-61
2022/06/17 09:49:48;;;;;;;7.78;1.30;;;;;;;23.24;48.35;100084.95;1762025;80;20952;-61
2022/06/17 09:52:36;;;;;;;4.55;1.30;;;;;;;23.59;47.84;100082.09;1760679;79;21773;-62
2022/06/17 09:55:17;;;;;;;4.87;1.22;;;;;;;23.27;46.75;100087.31;1756258;80;20907;-61
2022/06/17 09:57:50;;;;;;;4.15;1.30;;;;;;;22.93;46.75;100090.45;1751565;80;20895;-61
2022/06/17 10:00:21;;;;;;;1.98;0.82;;;;;;;22.71;47.51;100085.45;1755107;80;20883;-61
2022/06/17 10:02:56;;;;;;;3.05;1.30;;;;;;;23.18;47.86;100078.38;1760193;80;20920;-61
2022/06/17 10:05:42;;;;;;;5.33;1.02;;;;;;;23.04;47.12;100088.66;1752219;80;21057;-61
2022/06/17 10:08:18;;;;;;;;;;;;;;;22.67;47.39;100097.37;1756659;80;20917;-63
2022/06/17 10:11:20;;;;;;;2.07;1.10;;;;;;;22.66;47.42;100099.20;1755767;80;20451;-61
2022/06/17 10:14:13;;;;;;;4.42;1.27;;;;;;;22.49;47.15;100100.73;1746724;79;20938;-62
2022/06/17 10:20:12;;;;;;;8.43;1.52;;;;;;;22.88;46.44;100100.72;1739671;81;21927;-61
2022/06/17 10:23:12;;;;;;;4.12;0.90;;;;;;;23.06;46.80;100102.67;1745382;81;20942;-61
2022/06/17 10:25:47;;;;;;;3.75;1.07;;;;;;;22.89;46.69;100111.70;1739144;81;20927;-60
2022/06/17 10:28:58;;;;;;;3.58;1.00;;;;;;;22.83;46.22;100118.09;1745190;81;20978;-60
2022/06/17 10:31:38;;;;;;;5.03;1.27;;;;;;;22.66;46.29;100116.95;1743800;81;20949;-59
2022/06/17 10:34:27;;;;;;;6.58;1.65;;;;;;;22.38;46.13;100135.47;1728784;81;21480;-61
2022/06/17 10:36:59;;;;;;;7.53;1.52;;;;;;;22.08;46.28;100126.55;1746473;81;21466;-60
2022/06/17 10:39:29;;;;;;;4.87;1.40;;;;;;;21.90;46.52;100117.53;1733810;81;20916;-63
2022/06/17 10:41:57;;;;;;;1.95;0.80;;;;;;;22.02;46.91;100121.78;1743148;80;20907;-61
2022/06/17 10:44:27;;;;;;;4.28;1.10;;;;;;;22.37;46.70;100119.13;1751261;81;20872;-61
2022/06/17 10:47:17;;;;;;;10.18;1.42;;;;;;;22.49;46.40;100119.37;1732330;81;21029;-61
2022/06/17 10:49:54;;;;;;;4.97;1.30;;;;;;;22.54;46.80;100119.77;1670067;85;20950;-60
2022/06/17 10:52:26;;;;;;;9.68;1.60;;;;;;;22.40;46.43;100117.52;1661607;85;20866;-62
2022/06/17 10:54:54;;;;;;;4.42;0.90;;;;;;;22.78;46.98;100114.52;1611103;88;20936;-60
2022/06/17 10:57:33;;;;;;;5.35;1.30;;;;;;;23.08;45.93;100116.66;1608339;88;21488;-61
2022/06/17 11:00:00;;;;;;;2.75;0.93;;;;;;;23.17;45.87;100114.49;1606920;88;21115;-61
2022/06/17 11:02:31;;;;;;;3.12;1.17;;;;;;;23.45;46.10;100114.05;1610708;88;20949;-61
2022/06/17 11:05:03;;;;;;;3.67;1.22;;;;;;;23.16;44.81;100120.78;1609477;88;20928;-61
2022/06/17 11:07:50;;;;;;;9.43;1.00;;;;;;;22.88;45.62;100132.67;1608562;88;20959;-60
2022/06/17 11:10:24;;;;;;;6.28;1.10;;;;;;;22.47;45.51;100136.45;1610708;88;20964;-61
2022/06/17 11:13:07;;;;;;;7.55;1.42;;;;;;;21.93;46.22;100141.22;1604583;88;21741;-61
2022/06/17 11:15:39;;;;;;;4.42;1.15;;;;;;;21.70;46.18;100143.70;1603582;87;21567;-60
2022/06/17 11:18:17;;;;;;;2.50;0.68;;;;;;;21.51;45.59;100134.69;1596736;87;21589;-59
2022/06/17 11:20:58;;;;;;;3.55;1.00;;;;;;;21.56;45.16;100144.41;1601425;88;21662;-61
2022/06/17 11:23:36;;;;;;;5.70;1.02;;;;;;;21.66;46.13;100143.97;1598435;88;20939;-62
2022/06/17 11:26:22;;;;;;;8.23;1.67;;;;;;;21.67;46.24;100141.66;1607293;86;21055;-62
2022/06/17 11:28:53;;;;;;;9.28;1.70;;;;;;;21.86;46.54;100138.23;1638054;86;20980;-62
2022/06/17 11:31:31;;;;;;;6.72;1.60;;;;;;;22.05;46.61;100139.28;1647031;83;20968;-64
2022/06/17 11:34:17;;;;;;;9.50;1.60;;;;;;;22.29;46.75;100129.16;1665897;85;20977;-64
2022/06/17 11:37:10;;;;;;;7.58;1.60;;;;;;;22.55;46.95;100125.45;1664483;85;21559;-64
2022/06/17 11:39:38;;;;;;;10.98;1.22;;;;;;;22.44;46.20;100128.75;1687176;84;21070;-64
2022/06/17 11:42:22;;;;;;;5.92;1.07;;;;;;;22.43;46.37;100131.87;1655183;85;20943;-60
2022/06/17 11:45:03;;;;;;;12.25;1.60;;;;;;;22.19;45.58;100128.78;1684777;84;20909;-63
2022/06/17 11:47:33;;;;;;;4.80;1.17;;;;;;;21.99;46.10;100132.70;1704280;82;21506;-62
2022/06/17 11:50:19;;;;;;;5.17;1.02;;;;;;;21.81;46.66;100126.33;1690568;84;20988;-63
2022/06/17 11:52:48;;;;;;;5.15;0.98;;;;;;;21.94;46.83;100134.91;1660504;84;21139;-62
2022/06/17 11:55:16;;;;;;;3.08;1.17;;;;;;;21.82;46.51;100141.32;1671734;85;20894;-63
2022/06/17 11:57:44;;;;;;;3.33;1.20;;;;;;;21.48;47.28;100133.59;1665112;85;20938;-63
2022/06/17 12:00:22;;;;;;;3.90;1.27;;;;;;;21.57;47.14;100131.49;1668303;85;21802;-63
2022/06/17 12:02:59;;;;;;;4.47;1.30;;;;;;;21.71;47.11;100128.97;1679407;84;21523;-62
2022/06/17 12:05:33;;;;;;;3.92;1.20;;;;;;;21.72;46.98;100138.61;1699997;83;21801;-63
2022/06/17 12:08:17;;;;;;;6.20;1.40;;;;;;;21.72;47.24;100141.77;1648666;85;21043;-63
2022/06/17 12:10:50;;;;;;;9.03;1.05;;;;;;;21.87;47.39;100131.09;1673312;85;20991;-63
2022/06/17 12:13:45;;;;;;;2.25;1.00;;;;;;;22.15;47.58;100129.98;1693324;84;20973;-64
2022/06/17 12:16:41;;;;;;;4.78;1.22;;;;;;;22.18;47.29;100127.08;1694867;84;21502;-63